sensor_id;sensor_type;location;lat;lon;timestamp;pressure;altitude;pressure_sealevel;temperature;humidity
56582;BME280;42463;52.214;21.238;2023-05-24T00:00:34;99959.94;;;19.67;43.78
56582;BME280;42463;52.214;21.238;2023-05-24T00:03:00;99960.62;;;19.66;43.66
56582;BME280;42463;52.214;21.238;2023-05-24T00:05:08;99957.29;;;19.65;43.81
56582;BME280;42463;52.214;21.238;2023-05-24T00:07:14;99955.15;;;19.65;43.72
56582;BME280;42463;52.214;21.238;2023-05-24T00:09:20;99955.19;;;19.64;43.77
56582;BME280;42463;52.214;21.238;2023-05-24T00:11:25;99955.61;;;19.63;43.68
56582;BME280;42463;52.214;21.238;2023-05-24T00:13:31;99951.52;;;19.61;43.75
56582;BME280;42463;52.214;21.238;2023-05-24T00:15:36;99952.31;;;19.60;43.77
56582;BME280;42463;52.214;21.238;2023-05-24T00:17:42;99947.77;;;19.58;43.98
56582;BME280;42463;52.214;21.238;2023-05-24T00:19:47;99947.71;;;19.57;43.81
56582;BME280;42463;52.214;21.238;2023-05-24T00:21:53;99942.92;;;19.55;43.91
56582;BME280;42463;52.214;21.238;2023-05-24T00:23:58;99943.64;;;19.54;43.74
56582;BME280;42463;52.214;21.238;2023-05-24T00:26:04;99943.59;;;19.52;43.68
56582;BME280;42463;52.214;21.238;2023-05-24T00:28:10;99944.55;;;19.50;43.68
56582;BME280;42463;52.214;21.238;2023-05-24T00:30:15;99939.70;;;19.49;43.81
56582;BME280;42463;52.214;21.238;2023-05-24T00:32:20;99939.31;;;19.49;43.76
56582;BME280;42463;52.214;21.238;2023-05-24T00:34:26;99938.25;;;19.48;43.68
56582;BME280;42463;52.214;21.238;2023-05-24T00:36:31;99938.15;;;19.46;43.56
56582;BME280;42463;52.214;21.238;2023-05-24T00:38:37;99939.48;;;19.44;43.55
56582;BME280;42463;52.214;21.238;2023-05-24T00:40:42;99941.06;;;19.42;43.57
56582;BME280;42463;52.214;21.238;2023-05-24T00:42:47;99937.54;;;19.41;43.60
56582;BME280;42463;52.214;21.238;2023-05-24T00:44:54;99936.70;;;19.40;43.58
56582;BME280;42463;52.214;21.238;2023-05-24T00:47:00;99935.20;;;19.40;43.67
56582;BME280;42463;52.214;21.238;2023-05-24T00:49:06;99932.33;;;19.39;43.46
56582;BME280;42463;52.214;21.238;2023-05-24T00:51:12;99929.99;;;19.37;43.45
56582;BME280;42463;52.214;21.238;2023-05-24T00:53:18;99929.10;;;19.36;43.39
56582;BME280;42463;52.214;21.238;2023-05-24T00:55:25;99924.76;;;19.35;43.46
56582;BME280;42463;52.214;21.238;2023-05-24T00:57:30;99928.74;;;19.32;43.57
56582;BME280;42463;52.214;21.238;2023-05-24T00:59:36;99927.58;;;19.31;43.40
56582;BME280;42463;52.214;21.238;2023-05-24T01:01:48;99928.23;;;19.30;43.48
56582;BME280;42463;52.214;21.238;2023-05-24T01:03:53;99923.44;;;19.28;43.19
56582;BME280;42463;52.214;21.238;2023-05-24T01:06:01;99923.73;;;19.26;43.31
56582;BME280;42463;52.214;21.238;2023-05-24T01:08:13;99919.72;;;19.24;43.26
56582;BME280;42463;52.214;21.238;2023-05-24T01:10:31;99912.92;;;19.21;43.37
56582;BME280;42463;52.214;21.238;2023-05-24T01:12:52;99916.10;;;19.20;43.19
56582;BME280;42463;52.214;21.238;2023-05-24T01:15:08;99914.73;;;19.20;43.32
56582;BME280;42463;52.214;21.238;2023-05-24T01:17:19;99914.52;;;19.20;43.18
56582;BME280;42463;52.214;21.238;2023-05-24T01:19:47;99914.52;;;19.18;42.97
56582;BME280;42463;52.214;21.238;2023-05-24T01:22:00;99921.76;;;19.15;42.96
56582;BME280;42463;52.214;21.238;2023-05-24T01:24:24;99919.88;;;19.13;42.96
56582;BME280;42463;52.214;21.238;2023-05-24T01:26:39;99914.73;;;19.14;42.86
56582;BME280;42463;52.214;21.238;2023-05-24T01:28:47;99925.38;;;19.16;43.08
56582;BME280;42463;52.214;21.238;2023-05-24T01:30:54;99925.28;;;19.17;42.84
56582;BME280;42463;52.214;21.238;2023-05-24T01:33:01;99926.80;;;19.18;42.69
56582;BME280;42463;52.214;21.238;2023-05-24T01:35:08;99927.48;;;19.18;42.83
56582;BME280;42463;52.214;21.238;2023-05-24T01:37:14;99932.14;;;19.19;42.73
56582;BME280;42463;52.214;21.238;2023-05-24T01:39:19;99929.71;;;19.19;42.60
56582;BME280;42463;52.214;21.238;2023-05-24T01:41:35;99928.27;;;19.18;42.64
56582;BME280;42463;52.214;21.238;2023-05-24T01:43:50;99927.96;;;19.19;42.49
56582;BME280;42463;52.214;21.238;2023-05-24T01:46:04;99928.39;;;19.19;42.46
56582;BME280;42463;52.214;21.238;2023-05-24T01:48:18;99928.55;;;19.20;42.35
56582;BME280;42463;52.214;21.238;2023-05-24T01:50:32;99927.84;;;19.19;42.35
56582;BME280;42463;52.214;21.238;2023-05-24T01:52:39;99926.77;;;19.20;42.26
56582;BME280;42463;52.214;21.238;2023-05-24T01:54:52;99927.70;;;19.20;42.40
56582;BME280;42463;52.214;21.238;2023-05-24T01:56:59;99933.53;;;19.22;42.29
56582;BME280;42463;52.214;21.238;2023-05-24T01:59:09;99931.85;;;19.23;42.33
56582;BME280;42463;52.214;21.238;2023-05-24T02:01:16;99931.85;;;19.25;42.28
56582;BME280;42463;52.214;21.238;2023-05-24T02:03:23;99936.73;;;19.25;42.29
56582;BME280;42463;52.214;21.238;2023-05-24T02:05:30;99935.99;;;19.26;42.32
56582;BME280;42463;52.214;21.238;2023-05-24T02:07:37;99939.16;;;19.27;42.37
56582;BME280;42463;52.214;21.238;2023-05-24T02:09:44;99939.85;;;19.27;43.95
56582;BME280;42463;52.214;21.238;2023-05-24T02:11:50;99944.60;;;19.30;45.56
56582;BME280;42463;52.214;21.238;2023-05-24T02:13:56;99944.30;;;19.31;46.45
56582;BME280;42463;52.214;21.238;2023-05-24T02:16:01;99949.77;;;19.32;46.13
56582;BME280;42463;52.214;21.238;2023-05-24T02:18:08;99946.16;;;19.31;46.20
56582;BME280;42463;52.214;21.238;2023-05-24T02:20:14;99948.20;;;19.31;45.82
56582;BME280;42463;52.214;21.238;2023-05-24T02:22:20;99940.65;;;19.28;45.64
56582;BME280;42463;52.214;21.238;2023-05-24T02:24:26;99947.99;;;19.31;45.73
56582;BME280;42463;52.214;21.238;2023-05-24T02:26:31;99950.93;;;19.30;45.57
56582;BME280;42463;52.214;21.238;2023-05-24T02:28:37;99951.63;;;19.29;45.64
56582;BME280;42463;52.214;21.238;2023-05-24T02:30:42;99949.35;;;19.27;45.74
56582;BME280;42463;52.214;21.238;2023-05-24T02:32:48;99942.69;;;19.23;45.44
56582;BME280;42463;52.214;21.238;2023-05-24T02:34:53;99946.44;;;19.24;44.89
56582;BME280;42463;52.214;21.238;2023-05-24T02:36:59;99941.27;;;19.19;44.39
56582;BME280;42463;52.214;21.238;2023-05-24T02:39:05;99948.80;;;19.21;44.12
56582;BME280;42463;52.214;21.238;2023-05-24T02:41:10;99946.83;;;19.19;43.96
56582;BME280;42463;52.214;21.238;2023-05-24T02:43:21;99945.05;;;19.18;43.75
56582;BME280;42463;52.214;21.238;2023-05-24T02:45:25;99948.54;;;19.17;43.71
56582;BME280;42463;52.214;21.238;2023-05-24T02:47:29;99948.29;;;19.14;43.42
56582;BME280;42463;52.214;21.238;2023-05-24T02:49:33;99945.92;;;19.12;43.33
56582;BME280;42463;52.214;21.238;2023-05-24T02:51:37;99943.30;;;19.12;43.13
56582;BME280;42463;52.214;21.238;2023-05-24T02:53:41;99945.95;;;19.11;43.28
56582;BME280;42463;52.214;21.238;2023-05-24T02:55:45;99945.40;;;19.10;43.04
56582;BME280;42463;52.214;21.238;2023-05-24T02:57:51;99947.27;;;19.10;43.13
56582;BME280;42463;52.214;21.238;2023-05-24T02:59:56;99948.89;;;19.09;43.06
56582;BME280;42463;52.214;21.238;2023-05-24T03:02:00;99946.98;;;19.08;43.09
56582;BME280;42463;52.214;21.238;2023-05-24T03:04:04;99945.17;;;19.08;43.03
56582;BME280;42463;52.214;21.238;2023-05-24T03:06:09;99945.69;;;19.08;42.86
56582;BME280;42463;52.214;21.238;2023-05-24T03:08:15;99947.89;;;19.06;42.90
56582;BME280;42463;52.214;21.238;2023-05-24T03:10:20;99950.77;;;19.05;42.87
56582;BME280;42463;52.214;21.238;2023-05-24T03:12:24;99948.14;;;19.03;43.02
56582;BME280;42463;52.214;21.238;2023-05-24T03:14:28;99946.78;;;19.01;42.94
56582;BME280;42463;52.214;21.238;2023-05-24T03:16:32;99950.53;;;19.02;42.97
56582;BME280;42463;52.214;21.238;2023-05-24T03:18:36;99951.16;;;19.02;43.06
56582;BME280;42463;52.214;21.238;2023-05-24T03:20:40;99955.68;;;19.01;43.15
56582;BME280;42463;52.214;21.238;2023-05-24T03:22:44;99956.10;;;19.00;43.15
56582;BME280;42463;52.214;21.238;2023-05-24T03:24:48;99957.10;;;18.98;43.03
56582;BME280;42463;52.214;21.238;2023-05-24T03:26:52;99961.73;;;18.98;43.02
56582;BME280;42463;52.214;21.238;2023-05-24T03:28:57;99961.04;;;18.97;43.13
56582;BME280;42463;52.214;21.238;2023-05-24T03:31:05;99960.55;;;18.95;43.24
56582;BME280;42463;52.214;21.238;2023-05-24T03:33:10;99961.14;;;18.97;43.25
56582;BME280;42463;52.214;21.238;2023-05-24T03:35:14;99962.89;;;18.97;43.36
56582;BME280;42463;52.214;21.238;2023-05-24T03:37:18;99962.60;;;18.98;43.26
56582;BME280;42463;52.214;21.238;2023-05-24T03:39:23;99968.10;;;18.98;43.16
56582;BME280;42463;52.214;21.238;2023-05-24T03:41:42;99966.86;;;18.97;43.14
56582;BME280;42463;52.214;21.238;2023-05-24T03:43:46;99963.85;;;18.96;43.24
56582;BME280;42463;52.214;21.238;2023-05-24T03:45:52;99962.79;;;18.95;43.22
56582;BME280;42463;52.214;21.238;2023-05-24T03:47:57;99963.23;;;18.95;43.43
56582;BME280;42463;52.214;21.238;2023-05-24T03:50:01;99968.28;;;18.95;43.19
56582;BME280;42463;52.214;21.238;2023-05-24T03:52:05;99968.73;;;18.95;43.33
56582;BME280;42463;52.214;21.238;2023-05-24T03:54:09;99970.97;;;18.96;43.41
56582;BME280;42463;52.214;21.238;2023-05-24T03:56:13;99971.48;;;18.97;43.35
56582;BME280;42463;52.214;21.238;2023-05-24T03:58:18;99974.46;;;18.97;43.24
56582;BME280;42463;52.214;21.238;2023-05-24T04:00:22;99976.34;;;18.96;43.38
56582;BME280;42463;52.214;21.238;2023-05-24T04:02:26;99972.45;;;18.96;43.20
56582;BME280;42463;52.214;21.238;2023-05-24T04:04:30;99975.40;;;18.95;43.13
56582;BME280;42463;52.214;21.238;2023-05-24T04:06:34;99976.34;;;18.93;43.09
56582;BME280;42463;52.214;21.238;2023-05-24T04:08:40;99978.79;;;18.92;43.40
56582;BME280;42463;52.214;21.238;2023-05-24T04:10:45;99978.59;;;18.93;43.30
56582;BME280;42463;52.214;21.238;2023-05-24T04:12:49;99979.51;;;18.92;43.21
56582;BME280;42463;52.214;21.238;2023-05-24T04:14:54;99981.98;;;18.91;43.29
56582;BME280;42463;52.214;21.238;2023-05-24T04:16:58;99985.35;;;18.91;43.46
56582;BME280;42463;52.214;21.238;2023-05-24T04:19:04;99984.38;;;18.92;43.47
56582;BME280;42463;52.214;21.238;2023-05-24T04:21:08;99982.19;;;18.94;43.27
56582;BME280;42463;52.214;21.238;2023-05-24T04:23:12;99982.90;;;18.95;43.62
56582;BME280;42463;52.214;21.238;2023-05-24T04:25:16;99988.17;;;18.97;43.63
56582;BME280;42463;52.214;21.238;2023-05-24T04:27:20;99984.88;;;18.99;43.44
56582;BME280;42463;52.214;21.238;2023-05-24T04:29:28;99990.92;;;18.99;43.41
56582;BME280;42463;52.214;21.238;2023-05-24T04:31:36;99990.25;;;19.00;43.71
56582;BME280;42463;52.214;21.238;2023-05-24T04:33:40;99987.89;;;18.98;43.49
56582;BME280;42463;52.214;21.238;2023-05-24T04:35:45;99997.46;;;19.01;43.78
56582;BME280;42463;52.214;21.238;2023-05-24T04:37:49;100000.38;;;19.03;43.98
56582;BME280;42463;52.214;21.238;2023-05-24T04:39:54;100002.36;;;19.05;43.75
56582;BME280;42463;52.214;21.238;2023-05-24T04:41:59;100003.04;;;19.06;43.85
56582;BME280;42463;52.214;21.238;2023-05-24T04:44:03;100005.38;;;19.07;44.00
56582;BME280;42463;52.214;21.238;2023-05-24T04:46:07;100012.45;;;19.09;43.93
56582;BME280;42463;52.214;21.238;2023-05-24T04:48:11;100011.68;;;19.11;44.37
56582;BME280;42463;52.214;21.238;2023-05-24T04:50:15;100014.30;;;19.13;44.30
56582;BME280;42463;52.214;21.238;2023-05-24T04:52:20;100017.67;;;19.17;44.26
56582;BME280;42463;52.214;21.238;2023-05-24T04:54:24;100018.59;;;19.21;44.36
56582;BME280;42463;52.214;21.238;2023-05-24T04:56:28;100019.40;;;19.23;44.14
56582;BME280;42463;52.214;21.238;2023-05-24T04:58:33;100015.00;;;19.25;44.01
56582;BME280;42463;52.214;21.238;2023-05-24T05:00:37;100015.85;;;19.28;44.17
56582;BME280;42463;52.214;21.238;2023-05-24T05:02:41;100020.64;;;19.31;44.24
56582;BME280;42463;52.214;21.238;2023-05-24T05:04:45;100019.09;;;19.35;44.27
56582;BME280;42463;52.214;21.238;2023-05-24T05:06:49;100020.33;;;19.38;44.12
56582;BME280;42463;52.214;21.238;2023-05-24T05:08:54;100019.48;;;19.40;44.30
56582;BME280;42463;52.214;21.238;2023-05-24T05:10:58;100019.38;;;19.43;44.10
56582;BME280;42463;52.214;21.238;2023-05-24T05:13:03;100016.02;;;19.43;44.02
56582;BME280;42463;52.214;21.238;2023-05-24T05:15:08;100019.77;;;19.45;44.16
56582;BME280;42463;52.214;21.238;2023-05-24T05:17:13;100020.71;;;19.47;44.33
56582;BME280;42463;52.214;21.238;2023-05-24T05:19:17;100025.16;;;19.49;44.28
56582;BME280;42463;52.214;21.238;2023-05-24T05:21:21;100026.88;;;19.52;44.41
56582;BME280;42463;52.214;21.238;2023-05-24T05:23:25;100031.01;;;19.56;44.29
56582;BME280;42463;52.214;21.238;2023-05-24T05:25:29;100033.30;;;19.60;44.13
56582;BME280;42463;52.214;21.238;2023-05-24T05:27:33;100037.29;;;19.61;43.80
56582;BME280;42463;52.214;21.238;2023-05-24T05:29:38;100034.50;;;19.62;43.77
56582;BME280;42463;52.214;21.238;2023-05-24T05:31:43;100038.88;;;19.65;44.08
56582;BME280;42463;52.214;21.238;2023-05-24T05:33:47;100035.58;;;19.68;44.08
56582;BME280;42463;52.214;21.238;2023-05-24T05:35:51;100038.48;;;19.73;43.95
56582;BME280;42463;52.214;21.238;2023-05-24T05:37:55;100036.48;;;19.79;44.05
56582;BME280;42463;52.214;21.238;2023-05-24T05:39:59;100037.63;;;19.84;44.06
56582;BME280;42463;52.214;21.238;2023-05-24T05:42:04;100043.45;;;19.89;44.18
56582;BME280;42463;52.214;21.238;2023-05-24T05:44:08;100041.50;;;19.95;44.02
56582;BME280;42463;52.214;21.238;2023-05-24T05:46:13;100041.48;;;19.98;43.85
56582;BME280;42463;52.214;21.238;2023-05-24T05:48:18;100039.75;;;20.00;44.19
56582;BME280;42463;52.214;21.238;2023-05-24T05:50:22;100042.27;;;20.06;44.10
56582;BME280;42463;52.214;21.238;2023-05-24T05:52:26;100048.19;;;20.11;44.09
56582;BME280;42463;52.214;21.238;2023-05-24T05:54:30;100050.41;;;20.15;43.99
56582;BME280;42463;52.214;21.238;2023-05-24T05:56:34;100052.77;;;20.18;44.03
56582;BME280;42463;52.214;21.238;2023-05-24T05:58:43;100056.45;;;20.25;44.36
56582;BME280;42463;52.214;21.238;2023-05-24T06:00:47;100059.27;;;20.30;44.26
56582;BME280;42463;52.214;21.238;2023-05-24T06:02:51;100062.75;;;20.33;43.71
56582;BME280;42463;52.214;21.238;2023-05-24T06:04:55;100055.55;;;20.35;43.46
56582;BME280;42463;52.214;21.238;2023-05-24T06:06:59;100063.89;;;20.40;44.08
56582;BME280;42463;52.214;21.238;2023-05-24T06:09:03;100064.11;;;20.47;44.09
56582;BME280;42463;52.214;21.238;2023-05-24T06:11:07;100062.23;;;20.53;44.02
56582;BME280;42463;52.214;21.238;2023-05-24T06:13:12;100066.49;;;20.60;43.81
56582;BME280;42463;52.214;21.238;2023-05-24T06:15:16;100070.55;;;20.69;43.75
56582;BME280;42463;52.214;21.238;2023-05-24T06:17:20;100064.09;;;20.77;43.23
56582;BME280;42463;52.214;21.238;2023-05-24T06:19:26;100066.30;;;20.84;42.53
56582;BME280;42463;52.214;21.238;2023-05-24T06:21:30;100069.10;;;20.89;41.70
56582;BME280;42463;52.214;21.238;2023-05-24T06:23:34;100071.65;;;20.93;41.88
56582;BME280;42463;52.214;21.238;2023-05-24T06:25:39;100077.20;;;20.99;42.02
56582;BME280;42463;52.214;21.238;2023-05-24T06:27:46;100076.92;;;21.07;41.52
56582;BME280;42463;52.214;21.238;2023-05-24T06:29:50;100078.20;;;21.11;40.76
56582;BME280;42463;52.214;21.238;2023-05-24T06:31:54;100079.23;;;21.13;40.27
56582;BME280;42463;52.214;21.238;2023-05-24T06:33:58;100083.08;;;21.15;40.50
56582;BME280;42463;52.214;21.238;2023-05-24T06:36:02;100086.84;;;21.20;40.46
56582;BME280;42463;52.214;21.238;2023-05-24T06:38:06;100085.78;;;21.24;40.72
56582;BME280;42463;52.214;21.238;2023-05-24T06:40:11;100091.50;;;21.29;41.22
56582;BME280;42463;52.214;21.238;2023-05-24T06:42:15;100091.58;;;21.33;40.98
56582;BME280;42463;52.214;21.238;2023-05-24T06:44:22;100098.52;;;21.33;40.57
56582;BME280;42463;52.214;21.238;2023-05-24T06:46:32;100099.68;;;21.33;40.64
56582;BME280;42463;52.214;21.238;2023-05-24T06:48:37;100100.29;;;21.34;40.84
56582;BME280;42463;52.214;21.238;2023-05-24T06:50:41;100104.17;;;21.37;40.93
56582;BME280;42463;52.214;21.238;2023-05-24T06:52:45;100102.25;;;21.38;40.99
56582;BME280;42463;52.214;21.238;2023-05-24T06:54:49;100102.28;;;21.39;40.97
56582;BME280;42463;52.214;21.238;2023-05-24T06:56:53;100106.11;;;21.40;41.06
56582;BME280;42463;52.214;21.238;2023-05-24T06:58:58;100108.14;;;21.42;41.16
56582;BME280;42463;52.214;21.238;2023-05-24T07:01:02;100104.79;;;21.43;40.99
56582;BME280;42463;52.214;21.238;2023-05-24T07:03:07;100105.06;;;21.46;41.07
56582;BME280;42463;52.214;21.238;2023-05-24T07:05:11;100106.28;;;21.48;40.94
56582;BME280;42463;52.214;21.238;2023-05-24T07:07:15;100106.85;;;21.51;41.15
56582;BME280;42463;52.214;21.238;2023-05-24T07:09:19;100110.27;;;21.55;41.14
56582;BME280;42463;52.214;21.238;2023-05-24T07:11:24;100114.45;;;21.60;40.95
56582;BME280;42463;52.214;21.238;2023-05-24T07:13:29;100119.23;;;21.63;41.17
56582;BME280;42463;52.214;21.238;2023-05-24T07:15:33;100119.56;;;21.67;41.12
56582;BME280;42463;52.214;21.238;2023-05-24T07:17:37;100127.39;;;21.72;41.11
56582;BME280;42463;52.214;21.238;2023-05-24T07:19:41;100128.74;;;21.78;41.66
56582;BME280;42463;52.214;21.238;2023-05-24T07:21:46;100131.79;;;21.85;41.49
56582;BME280;42463;52.214;21.238;2023-05-24T07:23:50;100127.89;;;21.91;41.03
56582;BME280;42463;52.214;21.238;2023-05-24T07:25:54;100133.25;;;21.95;41.00
56582;BME280;42463;52.214;21.238;2023-05-24T07:27:59;100134.95;;;21.98;40.91
56582;BME280;42463;52.214;21.238;2023-05-24T07:30:04;100135.13;;;22.00;41.08
56582;BME280;42463;52.214;21.238;2023-05-24T07:32:09;100133.08;;;22.04;41.06
56582;BME280;42463;52.214;21.238;2023-05-24T07:34:13;100133.60;;;22.07;41.14
56582;BME280;42463;52.214;21.238;2023-05-24T07:36:18;100138.02;;;22.18;41.31
56582;BME280;42463;52.214;21.238;2023-05-24T07:38:23;100139.02;;;22.28;41.24
56582;BME280;42463;52.214;21.238;2023-05-24T07:40:27;100144.42;;;22.36;41.00
56582;BME280;42463;52.214;21.238;2023-05-24T07:42:31;100145.99;;;22.42;41.07
56582;BME280;42463;52.214;21.238;2023-05-24T07:44:35;100146.20;;;22.48;41.11
56582;BME280;42463;52.214;21.238;2023-05-24T07:46:39;100148.73;;;22.52;40.91
56582;BME280;42463;52.214;21.238;2023-05-24T07:48:43;100152.21;;;22.55;41.18
56582;BME280;42463;52.214;21.238;2023-05-24T07:50:49;100156.26;;;22.59;41.14
56582;BME280;42463;52.214;21.238;2023-05-24T07:52:55;100156.57;;;22.64;41.42
56582;BME280;42463;52.214;21.238;2023-05-24T07:54:59;100155.27;;;22.70;41.64
56582;BME280;42463;52.214;21.238;2023-05-24T07:57:04;100158.54;;;22.77;41.69
56582;BME280;42463;52.214;21.238;2023-05-24T07:59:10;100160.13;;;22.83;41.46
56582;BME280;42463;52.214;21.238;2023-05-24T08:01:14;100161.57;;;22.90;41.07
56582;BME280;42463;52.214;21.238;2023-05-24T08:03:18;100156.33;;;22.97;40.95
56582;BME280;42463;52.214;21.238;2023-05-24T08:05:22;100160.60;;;23.01;40.64
56582;BME280;42463;52.214;21.238;2023-05-24T08:07:26;100161.80;;;23.06;40.54
56582;BME280;42463;52.214;21.238;2023-05-24T08:09:30;100164.19;;;23.11;40.65
56582;BME280;42463;52.214;21.238;2023-05-24T08:11:37;100164.70;;;23.20;41.09
56582;BME280;42463;52.214;21.238;2023-05-24T08:13:41;100165.27;;;23.28;41.10
56582;BME280;42463;52.214;21.238;2023-05-24T08:15:46;100163.70;;;23.35;39.38
56582;BME280;42463;52.214;21.238;2023-05-24T08:17:50;100162.26;;;23.42;38.85
56582;BME280;42463;52.214;21.238;2023-05-24T08:19:54;100164.56;;;23.49;38.69
56582;BME280;42463;52.214;21.238;2023-05-24T08:21:58;100166.37;;;23.54;38.37
56582;BME280;42463;52.214;21.238;2023-05-24T08:24:06;100166.66;;;23.58;38.66
56582;BME280;42463;52.214;21.238;2023-05-24T08:26:11;100168.55;;;23.62;38.51
56582;BME280;42463;52.214;21.238;2023-05-24T08:28:15;100170.96;;;23.69;38.52
56582;BME280;42463;52.214;21.238;2023-05-24T08:30:19;100169.40;;;23.77;38.71
56582;BME280;42463;52.214;21.238;2023-05-24T08:32:24;100174.05;;;23.84;38.13
56582;BME280;42463;52.214;21.238;2023-05-24T08:34:28;100171.52;;;23.89;38.31
56582;BME280;42463;52.214;21.238;2023-05-24T08:36:32;100175.45;;;23.95;38.36
56582;BME280;42463;52.214;21.238;2023-05-24T08:38:36;100172.33;;;23.99;37.78
56582;BME280;42463;52.214;21.238;2023-05-24T08:40:41;100171.55;;;24.02;37.48
56582;BME280;42463;52.214;21.238;2023-05-24T08:42:45;100174.27;;;24.04;36.89
56582;BME280;42463;52.214;21.238;2023-05-24T08:44:51;100177.05;;;24.04;36.53
56582;BME280;42463;52.214;21.238;2023-05-24T08:46:56;100173.52;;;24.04;36.51
56582;BME280;42463;52.214;21.238;2023-05-24T08:49:01;100179.42;;;24.06;36.79
56582;BME280;42463;52.214;21.238;2023-05-24T08:51:06;100174.79;;;24.08;36.66
56582;BME280;42463;52.214;21.238;2023-05-24T08:53:10;100176.93;;;24.10;36.68
56582;BME280;42463;52.214;21.238;2023-05-24T08:55:16;100178.42;;;24.15;36.86
56582;BME280;42463;52.214;21.238;2023-05-24T08:57:20;100180.05;;;24.19;36.85
56582;BME280;42463;52.214;21.238;2023-05-24T08:59:25;100177.10;;;24.24;37.31
56582;BME280;42463;52.214;21.238;2023-05-24T09:01:29;100180.86;;;24.33;37.76
56582;BME280;42463;52.214;21.238;2023-05-24T09:03:34;100184.33;;;24.40;37.86
56582;BME280;42463;52.214;21.238;2023-05-24T09:05:39;100188.42;;;24.48;37.69
56582;BME280;42463;52.214;21.238;2023-05-24T09:07:44;100188.47;;;24.55;37.74
56582;BME280;42463;52.214;21.238;2023-05-24T09:09:49;100181.89;;;24.61;37.38
56582;BME280;42463;52.214;21.238;2023-05-24T09:11:53;100183.25;;;24.67;37.53
56582;BME280;42463;52.214;21.238;2023-05-24T09:13:59;100182.02;;;24.75;37.27
56582;BME280;42463;52.214;21.238;2023-05-24T09:16:05;100186.34;;;24.81;36.84
56582;BME280;42463;52.214;21.238;2023-05-24T09:18:09;100189.57;;;24.87;36.46
56582;BME280;42463;52.214;21.238;2023-05-24T09:20:13;100188.98;;;24.92;35.37
56582;BME280;42463;52.214;21.238;2023-05-24T09:22:18;100190.19;;;24.95;35.11
56582;BME280;42463;52.214;21.238;2023-05-24T09:24:25;100189.09;;;24.97;34.83
56582;BME280;42463;52.214;21.238;2023-05-24T09:26:29;100193.42;;;25.04;34.72
56582;BME280;42463;52.214;21.238;2023-05-24T09:28:33;100191.49;;;25.09;34.26
56582;BME280;42463;52.214;21.238;2023-05-24T09:30:38;100191.70;;;25.14;34.29
56582;BME280;42463;52.214;21.238;2023-05-24T09:32:42;100195.57;;;25.26;34.09
56582;BME280;42463;52.214;21.238;2023-05-24T09:34:57;100202.52;;;25.35;33.87
56582;BME280;42463;52.214;21.238;2023-05-24T09:37:02;100198.27;;;25.42;34.12
56582;BME280;42463;52.214;21.238;2023-05-24T09:39:06;100199.33;;;25.50;33.92
56582;BME280;42463;52.214;21.238;2023-05-24T09:41:12;100203.28;;;25.57;33.67
56582;BME280;42463;52.214;21.238;2023-05-24T09:43:16;100199.83;;;25.61;33.29
56582;BME280;42463;52.214;21.238;2023-05-24T09:45:22;100205.67;;;25.66;33.00
56582;BME280;42463;52.214;21.238;2023-05-24T09:47:30;100205.32;;;25.70;32.44
56582;BME280;42463;52.214;21.238;2023-05-24T09:49:35;100201.35;;;25.74;32.13
56582;BME280;42463;52.214;21.238;2023-05-24T09:51:40;100199.88;;;25.75;32.20
56582;BME280;42463;52.214;21.238;2023-05-24T09:53:44;100200.09;;;25.81;31.93
56582;BME280;42463;52.214;21.238;2023-05-24T09:55:49;100201.15;;;25.86;32.07
56582;BME280;42463;52.214;21.238;2023-05-24T09:58:02;100199.45;;;25.95;31.92
56582;BME280;42463;52.214;21.238;2023-05-24T10:00:07;100200.88;;;26.04;31.84
56582;BME280;42463;52.214;21.238;2023-05-24T10:02:20;100199.55;;;26.17;31.88
56582;BME280;42463;52.214;21.238;2023-05-24T10:04:32;100202.60;;;26.29;31.82
56582;BME280;42463;52.214;21.238;2023-05-24T10:06:36;100198.52;;;26.38;31.02
56582;BME280;42463;52.214;21.238;2023-05-24T10:08:41;100200.25;;;26.49;31.23
56582;BME280;42463;52.214;21.238;2023-05-24T10:10:46;100202.11;;;26.59;30.76
56582;BME280;42463;52.214;21.238;2023-05-24T10:12:50;100205.73;;;26.68;30.72
56582;BME280;42463;52.214;21.238;2023-05-24T10:14:55;100203.95;;;26.76;30.77
56582;BME280;42463;52.214;21.238;2023-05-24T10:16:59;100208.25;;;26.84;30.30
56582;BME280;42463;52.214;21.238;2023-05-24T10:19:04;100205.07;;;26.84;29.78
56582;BME280;42463;52.214;21.238;2023-05-24T10:21:09;100205.54;;;26.84;30.00
56582;BME280;42463;52.214;21.238;2023-05-24T10:23:14;100209.22;;;26.85;30.09
56582;BME280;42463;52.214;21.238;2023-05-24T10:25:21;100211.30;;;26.90;30.29
56582;BME280;42463;52.214;21.238;2023-05-24T10:27:27;100213.35;;;26.96;30.01
56582;BME280;42463;52.214;21.238;2023-05-24T10:29:35;100218.48;;;27.02;29.78
56582;BME280;42463;52.214;21.238;2023-05-24T10:31:47;100213.73;;;27.00;29.72
56582;BME280;42463;52.214;21.238;2023-05-24T10:33:51;100209.84;;;26.97;29.89
56582;BME280;42463;52.214;21.238;2023-05-24T10:35:56;100212.77;;;26.95;30.41
56582;BME280;42463;52.214;21.238;2023-05-24T10:38:00;100215.94;;;26.91;30.27
56582;BME280;42463;52.214;21.238;2023-05-24T10:40:08;100214.73;;;26.90;30.44
56582;BME280;42463;52.214;21.238;2023-05-24T10:42:19;100215.02;;;26.89;30.69
56582;BME280;42463;52.214;21.238;2023-05-24T10:44:26;100219.30;;;26.88;30.68
56582;BME280;42463;52.214;21.238;2023-05-24T10:46:31;100220.23;;;26.87;30.92
56582;BME280;42463;52.214;21.238;2023-05-24T10:48:37;100213.36;;;26.85;31.02
56582;BME280;42463;52.214;21.238;2023-05-24T10:50:42;100216.40;;;26.90;30.96
56582;BME280;42463;52.214;21.238;2023-05-24T10:52:47;100219.38;;;26.92;30.97